Airfield :
LOGIN :

Register | Disclaimer

   EN    FR    IT 

 










Legend :    VFR   Marginal VFR   IFR   Intensive IFR   Very Intensive IFR
Visi :
Ceiling :
>= 8 km
>= 3000ft
5 to 8 km
1000 to 3000 ft
1500m to 5 km
500 to 1000 ft
800 to 1500m
200 to 500 ft
< 800m
< 200 ft
Symbols :   Thunderstorms  Fog  Heavy snow  Heavy precipitations  Wind > 20 kt
SIGMETs :     Misc.  Thunderstorms  Icing  Turbulence  Mountain Waves  Volcanic Ashes






- Airport Elevation : 584 ft


LFPV - Villacoublay Vélizy

CURRENT METAR :
  • 192230Z AUTO 19004KT 150V230 9000 SCT005 SCT019 BKN240 19/18 Q1010 TEMPO OVC003

EXPIRED METARs :
  • 192200Z AUTO 20005KT 160V230 4900 BR OVC003 19/19 Q1010 BECMG 9999 NSW
  • 192130Z AUTO 19003KT 160V230 5000 BR BKN005 OVC011 19/19 Q1010 NOSIG
  • 192100Z AUTO 16003KT 6000 OVC005 19/18 Q1009 NOSIG
  • 192030Z AUTO 06004KT 8000 BKN005 OVC090 19/18 Q1009 NOSIG
  • 192000Z AUTO 03006KT 360V060 6000 OVC004 19/18 Q1009

TAF TAF LFPV
Valid from the 19 at 21:00 until the 20 at 21:00 UTC


192000Z 1921/2021 02005KT 9999 BKN020 TX25/2015Z TN15/2006Z
TEMPO 1921/2009 OVC003
BECMG 2012/2014 SCT040TCU
TEMPO 2015/2021 4000 SHRA BKN050CB
PROB40
TEMPO 2015/2021 VRB15G32KT 2000 TSRA BKN025CB



MET'MAP, your aeronautical weather chart ! - Copyright ORBIFLY December 2007 - Disclaimer

ORBIFLY MET'MAP TEAM :

Programming & Development : Alexandra Zaïnal
Concept & original design : Baudouin d'Aumeries
Assistance for programming : Marc-Olivier Méhu
Technical & hardware support : Manuel Goepfert

Contact : metmap@orbifly.com




SOURCES & CREDITS :

   NOAA